Time;durP1;ratioP1;P1;durP2;ratioP2;P2;SDS_P1;SDS_P2;PMS_P1;PMS_P2;Temp;Humidity;BMP_temperature;BMP_pressure;BME280_temperature;BME280_humidity;BME280_pressure;Samples;Min_cycle;Max_cycle;Signal;HPM_P1;HPM_P2
2021/10/18 00:07:49;;;;;;;28.8;21.55;;;;;;;5.951723;75.73245;99340;;;;
2021/10/18 00:17:48;;;;;;;25.4;22.7;;;;;;;5.681799;76.36993;99334;;;;
2021/10/18 00:27:45;;;;;;;25.9;23.1;;;;;;;5.592029;77.25143;99332;;;;
2021/10/18 00:37:44;;;;;;;26.03333;22.6;;;;;;;5.571723;77.51581;99322;;;;
2021/10/18 00:47:42;;;;;;;26.23333;22.9;;;;;;;5.562105;77.8975;99324;;;;
2021/10/18 00:57:40;;;;;;;28.3;25.3;;;;;;;5.521838;78.33913;99320;;;;
2021/10/18 01:07:39;;;;;;;27.8;24.45;;;;;;;5.692143;78.61922;99314;;;;
2021/10/18 01:17:37;;;;;;;27.13333;23.96667;;;;;;;5.781723;78.15787;99324;;;;
2021/10/18 01:27:35;;;;;;;28.1;25.1;;;;;;;5.742067;78.00166;99326;;;;
2021/10/18 01:37:34;;;;;;;28.4;23.7;;;;;;;5.721799;77.96136;99324;;;;
2021/10/18 01:47:32;;;;;;;27.75;23.9;;;;;;;5.682219;77.9515;99316;;;;
2021/10/18 02:07:29;;;;;;;29.3;24.1;;;;;;;5.371684;78.22507;99312;;;;
2021/10/18 02:17:30;;;;;;;30.6;21.6;;;;;;;5.252029;78.181;99318;;;;
2021/10/18 02:27:25;;;;;;;27.3;21.6;;;;;;;5.161838;78.37965;99322;;;;
2021/10/18 02:37:23;;;;;;;24.2;21.6;;;;;;;5.041876;78.56547;99320;;;;
2021/10/18 02:47:22;;;;;;;26.85;22.7;;;;;;;5.101838;79.37639;99314;;;;
2021/10/18 02:57:20;;;;;;;31.7;23.3;;;;;;;5.261837;79.74899;99318;;;;
2021/10/18 03:27:15;;;;;;;24.1;20.46667;;;;;;;5.442143;79.41381;99318;;;;
2021/10/18 03:37:13;;;;;;;29.2;23;;;;;;;5.562067;79.4225;99324;;;;
2021/10/18 03:47:12;;;;;;;21.7;19.4;;;;;;;5.661953;79.46767;99330;;;;
2021/10/18 03:57:10;;;;;;;22.7;19.5;;;;;;;5.811914;79.22115;99338;;;;
2021/10/18 04:07:08;;;;;;;20.3;17.9;;;;;;;5.992219;78.87809;99336;;;;
2021/10/18 04:17:07;;;;;;;19.7;17.6;;;;;;;6.171838;78.19861;99342;;;;
2021/10/18 04:27:05;;;;;;;22.9;18.9;;;;;;;6.321761;77.96101;99346;;;;
2021/10/18 04:37:03;;;;;;;22.4;19.8;;;;;;;6.431761;77.7758;99354;;;;
2021/10/18 04:47:02;;;;;;;22.75;19.7;;;;;;;6.512257;77.86098;99365;;;;
2021/10/18 04:57:00;;;;;;;24;18.7;;;;;;;6.562105;77.46878;99371;;;;
2021/10/18 05:06:59;;;;;;;19.2;17.3;;;;;;;6.641838;77.10915;99383;;;;
2021/10/18 05:16:58;;;;;;;23;20.8;;;;;;;6.711915;76.9938;99403;;;;
2021/10/18 05:26:55;;;;;;;23.1;20.1;;;;;;;6.781914;76.76609;99424;;;;
2021/10/18 05:36:58;;;;;;;23.1;20.7;;;;;;;6.841991;76.8231;99442;;;;
2021/10/18 05:46:52;;;;;;;30.8;22;;;;;;;6.822067;77.57861;99452;;;;
2021/10/18 05:56:51;;;;;;;30.3;23.2;;;;;;;6.901761;77.99545;99459;;;;
2021/10/18 06:06:50;;;;;;;32.2;27.6;;;;;;;7.032143;78.44602;99469;;;;
2021/10/18 06:16:48;;;;;;;33.2;27.9;;;;;;;7.152219;78.60974;99475;;;;
2021/10/18 06:26:47;;;;;;;34.8;30.35;;;;;;;7.191684;79.04482;99491;;;;
2021/10/18 06:36:45;;;;;;;45.7;34.5;;;;;;;7.451991;79.31152;99504;;;;
2021/10/18 06:46:44;;;;;;;45.90001;34.33333;;;;;;;7.702219;79.29163;99512;;;;
2021/10/18 06:56:44;;;;;;;43.40001;32.06667;;;;;;;7.762181;78.53522;99520;;;;
2021/10/18 07:06:41;;;;;;;27.3;24.4;;;;;;;7.972029;79.26134;99532;;;;
2021/10/18 07:16:39;;;;;;;25.3;20.1;;;;;;;8.192182;78.65218;99542;;;;
2021/10/18 07:26:38;;;;;;;25.65;21.1;;;;;;;8.301876;79.29726;99552;;;;
2021/10/18 07:36:36;;;;;;;23.9;21.4;;;;;;;8.522182;79.1616;99550;;;;
2021/10/18 07:46:35;;;;;;;24.5;22;;;;;;;8.712181;78.6808;99558;;;;
2021/10/18 07:56:34;;;;;;;24.8;22.4;;;;;;;8.831876;79.00034;99558;;;;
2021/10/18 08:06:33;;;;;;;27.4;20;;;;;;;8.942182;78.75169;99564;;;;
2021/10/18 08:16:31;;;;;;;24.2;20.4;;;;;;;9.001952;78.17248;99571;;;;
2021/10/18 08:26:30;;;;;;;24.65;21.15;;;;;;;9.022295;78.06235;99579;;;;
2021/10/18 08:36:31;;;;;;;24.03333;20.8;;;;;;;8.931953;78.06455;99587;;;;
2021/10/18 08:46:27;;;;;;;30.8;22.3;;;;;;;8.962256;78.44063;99601;;;;
2021/10/18 08:56:26;;;;;;;29.2;25.7;;;;;;;8.902182;79.25222;99605;;;;
2021/10/18 09:06:25;;;;;;;28.5;25.4;;;;;;;8.91222;80.23239;99603;;;;
2021/10/18 09:26:23;;;;;;;29.1;24.4;;;;;;;8.982105;81.33997;99609;;;;
2021/10/18 09:36:24;;;;;;;28.4;22.4;;;;;;;9.232143;81.24537;99609;;;;
2021/10/18 09:46:35;;;;;;;23.9;21.4;;;;;;;9.461684;80.89679;99595;;;;
2021/10/18 10:56:12;;;;;;;23.2;20.5;;;;;;;9.762181;80.12877;99624;;;;
2021/10/18 11:06:11;;;;;;;33.6;24.2;;;;;;;9.761838;78.81304;99618;;;;
2021/10/18 11:16:10;;;;;;;24.6;20.2;;;;;;;9.821991;78.49902;99624;;;;
2021/10/18 11:26:12;;;;;;;25.4;20.8;;;;;;;9.852067;78.27019;99620;;;;
2021/10/18 11:46:07;;;;;;;31.8;24.2;;;;;;;10.03226;78.12776;99605;;;;
2021/10/18 11:56:06;;;;;;;27;24.2;;;;;;;10.30176;76.95247;99615;;;;
2021/10/18 12:06:04;;;;;;;27.6;24.7;;;;;;;10.2;77.265;99624;;;;
2021/10/18 12:26:02;;;;;;;27.3;24.4;;;;;;;9.891685;78.22482;99618;;;;
2021/10/18 12:36:02;;;;;;;37.3;26.9;;;;;;;10.01176;78.63743;99620;;;;
2021/10/18 12:46:00;;;;;;;36.2;32.3;;;;;;;9.912257;79.08575;99626;;;;
2021/10/18 12:55:59;;;;;;;48;34.5;;;;;;;9.901991;79.60934;99632;;;;
2021/10/18 13:05:59;;;;;;;38.8;35;;;;;;;9.941915;80.11555;99638;;;;
2021/10/18 13:25:56;;;;;;;40.2;35.4;;;;;;;10.10214;79.17306;99654;;;;
2021/10/18 13:35:55;;;;;;;43.65;35.95;;;;;;;10.00226;79.38013;99658;;;;
2021/10/18 13:45:54;;;;;;;42.46667;36.06667;;;;;;;9.851991;80.23988;99662;;;;
2021/10/18 13:55:53;;;;;;;41.13333;35.03333;;;;;;;9.981838;79.61774;99663;;;;
2021/10/18 14:05:51;;;;;;;41.13333;35.73333;;;;;;;10.05172;79.38171;99663;;;;
2021/10/18 14:15:50;;;;;;;37.83333;32.66666;;;;;;;10.06214;79.57597;99650;;;;
2021/10/18 14:25:49;;;;;;;35.9;30.73333;;;;;;;9.981799;79.70253;99654;;;;
2021/10/18 14:35:48;;;;;;;33.4;27.53333;;;;;;;9.971684;79.95094;99669;;;;
2021/10/18 14:45:48;;;;;;;34.1;30.5;;;;;;;9.951877;80.03067;99671;;;;
2021/10/18 14:55:46;;;;;;;31.4;28.3;;;;;;;9.981953;80.11949;99667;;;;
2021/10/18 15:05:45;;;;;;;32.75;28.95;;;;;;;9.892067;80.4995;99669;;;;
2021/10/18 15:15:44;;;;;;;30.7;25.5;;;;;;;9.931838;80.74136;99679;;;;
2021/10/18 15:25:42;;;;;;;35.9;32.2;;;;;;;9.882181;80.93121;99693;;;;
2021/10/18 15:35:41;;;;;;;38.1;34.15;;;;;;;9.871876;80.99844;99693;;;;
2021/10/18 15:45:40;;;;;;;35.53333;31.93333;;;;;;;9.872105;81.17346;99701;;;;
2021/10/18 15:55:39;;;;;;;28;25.1;;;;;;;9.842105;81.13239;99704;;;;
2021/10/18 16:05:38;;;;;;;29.3;26.1;;;;;;;9.832181;81.44747;99706;;;;
2021/10/18 16:15:37;;;;;;;38.7;32.9;;;;;;;9.801914;81.54077;99710;;;;
2021/10/18 16:25:36;;;;;;;37.8;33.7;;;;;;;9.85222;81.18568;99714;;;;
2021/10/18 16:35:35;;;;;;;32;28.8;;;;;;;9.841952;81.08586;99722;;;;
2021/10/18 16:45:34;;;;;;;33.45;30.05;;;;;;;9.83199;81.21821;99714;;;;
2021/10/18 16:55:32;;;;;;;35.53334;32;;;;;;;9.811723;81.0066;99712;;;;
2021/10/18 17:05:31;;;;;;;42.7;36.8;;;;;;;9.761761;80.75568;99718;;;;
2021/10/18 17:15:30;;;;;;;39.7;34.85;;;;;;;9.742067;80.80076;99728;;;;
2021/10/18 17:25:29;;;;;;;34.5;31;;;;;;;9.66222;81.0547;99726;;;;
2021/10/18 17:45:27;;;;;;;35;31.4;;;;;;;9.601991;81.19113;99736;;;;
2021/10/18 18:05:25;;;;;;;35.3;31.7;;;;;;;9.591952;80.7844;99722;;;;
2021/10/18 18:25:23;;;;;;;38.4;29.4;;;;;;;9.60222;80.22408;99728;;;;
2021/10/18 18:35:21;;;;;;;34.7;28.4;;;;;;;9.622067;79.96764;99712;;;;
2021/10/18 18:55:19;;;;;;;36.4;28.95;;;;;;;9.682181;79.15889;99724;;;;
2021/10/18 19:05:18;;;;;;;39.6;35.7;;;;;;;9.741953;79.11814;99749;;;;
2021/10/18 19:15:17;;;;;;;35.7;31.1;;;;;;;9.771723;78.90661;99753;;;;
2021/10/18 19:35:15;;;;;;;37.9;32.7;;;;;;;9.701761;79.41258;99748;;;;
2021/10/18 19:45:13;;;;;;;37.5;32.3;;;;;;;9.651799;79.22386;99751;;;;
2021/10/18 20:05:11;;;;;;;32.4;28.4;;;;;;;9.592257;79.40882;99765;;;;
2021/10/18 20:25:09;;;;;;;26.8;21.9;;;;;;;9.562029;79.38517;99769;;;;
2021/10/18 20:35:08;;;;;;;23.8;20.2;;;;;;;9.601838;78.61516;99757;;;;
2021/10/18 20:45:07;;;;;;;24.3;16.2;;;;;;;9.662067;78.17559;99761;;;;
2021/10/18 21:05:05;;;;;;;17;15.3;;;;;;;9.691876;77.55101;99775;;;;
2021/10/18 21:15:05;;;;;;;20.7;15.4;;;;;;;9.66222;77.68338;99769;;;;
2021/10/18 21:25:02;;;;;;;17.6;14.2;;;;;;;9.541876;77.77309;99767;;;;
2021/10/18 21:35:01;;;;;;;14.8;13.2;;;;;;;9.39;77.567;99761;;;;
2021/10/18 21:45:00;;;;;;;15.7;14.2;;;;;;;9.301799;77.73756;99763;;;;
2021/10/18 21:54:59;;;;;;;18.5;14.9;;;;;;;9.111915;78.19612;99765;;;;
2021/10/18 22:04:58;;;;;;;17.5;14.5;;;;;;;8.96199;78.84644;99763;;;;
2021/10/18 22:14:57;;;;;;;29.4;16.4;;;;;;;8.832181;78.71073;99771;;;;
2021/10/18 22:24:56;;;;;;;21.5;15.3;;;;;;;8.591914;78.98534;99763;;;;
2021/10/18 22:34:56;;;;;;;18.4;14.4;;;;;;;8.321799;79.61669;99759;;;;
2021/10/18 22:44:53;;;;;;;15.3;13.4;;;;;;;8.262181;80.93895;99753;;;;
2021/10/18 22:54:52;;;;;;;17.3;13.8;;;;;;;8.281953;80.68293;99753;;;;
2021/10/18 23:04:50;;;;;;;28.6;14.1;;;;;;;8.161953;80.31004;99755;;;;
2021/10/18 23:14:50;;;;;;;18.2;12.4;;;;;;;7.9;79.93501;99742;;;;
2021/10/18 23:24:49;;;;;;;17.6;14.8;;;;;;;7.721723;80.61002;99730;;;;
2021/10/18 23:34:55;;;;;;;19.3;15.8;;;;;;;7.501915;81.12347;99732;;;;
2021/10/18 23:44:45;;;;;;;21.9;17.1;;;;;;;7.361876;81.18945;99746;;;;
2021/10/18 23:54:44;;;;;;;20.1;16.3;;;;;;;7.111799;81.10564;99749;;;;
